createdAt,value
2019-05-20T00:01:49.814Z,96825.19
2019-05-20T00:04:19.774Z,96828.97
2019-05-20T00:06:49.992Z,96828.51
2019-05-20T00:09:20.148Z,96831.32
2019-05-20T00:23:20.437Z,96828.81
2019-05-20T00:25:50.308Z,96838.04
2019-05-20T00:57:57.353Z,96804.45
2019-05-20T01:07:41.064Z,96818.47
2019-05-20T01:10:11.103Z,96813.70
2019-05-20T01:36:50.932Z,96791.44
2019-05-20T01:56:41.469Z,96793.30
2019-05-20T01:59:11.439Z,96795.23
2019-05-20T02:08:42.686Z,96791.66
2019-05-20T02:25:51.217Z,96784.27
2019-05-20T02:28:21.169Z,96786.45
2019-05-20T02:37:33.407Z,96782.17
2019-05-20T02:47:16.953Z,96790.06
2019-05-20T03:04:43.800Z,96787.63
2019-05-20T03:14:34.739Z,96780.45
2019-05-20T03:32:01.572Z,96791.91
2019-05-20T03:41:51.201Z,96782.36
2019-05-20T03:51:40.665Z,96784.81
2019-05-20T04:08:51.544Z,96780.83
2019-05-20T04:11:21.542Z,96775.17
2019-05-20T04:13:52.075Z,96770.89
2019-05-20T04:16:22.105Z,96775.45
2019-05-20T04:18:54.113Z,96774.98
2019-05-20T04:21:23.740Z,96779.11
2019-05-20T04:23:53.785Z,96775.42
2019-05-20T04:30:18.898Z,96774.19
2019-05-20T04:40:01.785Z,96765.94
2019-05-20T04:42:32.170Z,96764.84
2019-05-20T04:59:24.210Z,96782.27
2019-05-20T05:01:54.216Z,96779.42
2019-05-20T05:04:24.210Z,96790.10
2019-05-20T05:20:54.186Z,96787.98
2019-05-20T05:23:24.865Z,96790.61
2019-05-20T05:25:55.021Z,96797.92
2019-05-20T05:32:17.851Z,96801.14
2019-05-20T05:34:47.855Z,96802.88
2019-05-20T05:37:17.868Z,96799.84
2019-05-20T05:43:46.421Z,96798.56
2019-05-20T05:46:16.487Z,96798.71
2019-05-20T05:48:46.517Z,96798.81
2019-05-20T05:51:16.680Z,96796.51
2019-05-20T06:00:41.729Z,96788.99
2019-05-20T06:03:11.867Z,96793.27
2019-05-20T06:05:41.799Z,96796.86
2019-05-20T06:08:11.819Z,96799.02
2019-05-20T06:14:14.591Z,96805.34
2019-05-20T06:24:04.322Z,96803.76
2019-05-20T06:35:54.528Z,96806.06
2019-05-20T06:38:40.798Z,96807.95
2019-05-20T06:47:53.469Z,96806.51
2019-05-20T06:50:23.547Z,96817.10
2019-05-20T06:52:53.562Z,96818.98
2019-05-20T06:55:23.705Z,96816.42
2019-05-20T06:57:54.100Z,96815.47
2019-05-20T07:00:37.442Z,96816.42
2019-05-20T07:03:07.543Z,96809.03
2019-05-20T07:05:37.758Z,96814.67
2019-05-20T07:08:07.915Z,96817.34
2019-05-20T07:10:38.059Z,96821.74
2019-05-20T07:13:08.222Z,96820.53
2019-05-20T07:15:38.430Z,96819.28
2019-05-20T07:18:08.911Z,96826.97
2019-05-20T07:20:38.934Z,96828.05
2019-05-20T07:23:08.915Z,96825.91
2019-05-20T07:25:38.863Z,96821.30
2019-05-20T07:28:08.856Z,96824.50
2019-05-20T07:30:39.376Z,96824.37
2019-05-20T07:33:09.598Z,96830.06
2019-05-20T07:35:39.986Z,96830.87
2019-05-20T07:44:32.732Z,96825.00
2019-05-20T07:47:02.842Z,96819.59
2019-05-20T07:56:19.914Z,96837.49
2019-05-20T08:06:03.008Z,96838.55
2019-05-20T08:35:08.348Z,96852.61
2019-05-20T08:37:45.193Z,96858.81
2019-05-20T08:40:10.298Z,96864.72
2019-05-20T08:42:40.317Z,96864.48
2019-05-20T08:45:10.550Z,96868.16
2019-05-20T08:47:40.735Z,96866.05
2019-05-20T08:50:15.965Z,96869.61
2019-05-20T08:52:42.825Z,96869.39
2019-05-20T08:59:03.944Z,96874.28
2019-05-20T09:08:53.449Z,96875.22
2019-05-20T09:11:23.591Z,96880.21
2019-05-20T09:13:53.606Z,96873.16
2019-05-20T09:16:23.793Z,96874.14
2019-05-20T09:18:53.716Z,96873.45
2019-05-20T09:21:23.937Z,96871.17
2019-05-20T09:23:54.124Z,96876.77
2019-05-20T09:26:24.133Z,96874.38
2019-05-20T09:28:54.197Z,96874.58
2019-05-20T09:31:24.548Z,96875.09
2019-05-20T09:33:54.710Z,96876.73
2019-05-20T09:36:26.023Z,96884.42
2019-05-20T09:38:56.096Z,96878.64
2019-05-20T09:41:26.152Z,96878.61
2019-05-20T09:43:56.118Z,96879.63
2019-05-20T09:57:55.616Z,96887.67
2019-05-20T10:07:39.090Z,96897.92
2019-05-20T10:10:09.904Z,96897.23
2019-05-20T10:12:46.628Z,96908.16
2019-05-20T10:15:12.454Z,96911.90
2019-05-20T10:17:42.604Z,96903.89
2019-05-20T10:20:12.851Z,96911.80
2019-05-20T10:22:43.037Z,96910.93
2019-05-20T10:25:13.551Z,96910.44
2019-05-20T10:27:43.521Z,96908.41
2019-05-20T10:30:13.968Z,96919.08
2019-05-20T10:32:44.080Z,96922.05
2019-05-20T10:35:14.922Z,96923.13
2019-05-20T10:37:45.761Z,96923.21
2019-05-20T10:51:39.407Z,96918.41
2019-05-20T10:54:09.499Z,96922.23
2019-05-20T10:56:39.547Z,96924.37
2019-05-20T10:59:11.954Z,96921.90
2019-05-20T11:01:41.418Z,96924.98
2019-05-20T11:04:11.456Z,96926.34
2019-05-20T11:06:41.550Z,96924.66
2019-05-20T11:13:03.534Z,96930.89
2019-05-20T11:15:33.611Z,96933.98
2019-05-20T11:18:03.573Z,96936.95
2019-05-20T11:20:33.501Z,96931.97
2019-05-20T11:23:03.709Z,96938.11
2019-05-20T11:25:33.731Z,96937.56
2019-05-20T11:28:03.792Z,96943.92
2019-05-20T11:30:33.877Z,96937.04
2019-05-20T11:33:04.009Z,96941.69
2019-05-20T11:35:34.120Z,96942.23
2019-05-20T11:38:04.236Z,96942.70
2019-05-20T11:40:34.115Z,96937.81
2019-05-20T11:43:04.075Z,96932.47
2019-05-20T11:45:34.060Z,96931.71
2019-05-20T11:48:04.007Z,96928.89
2019-05-20T11:50:33.983Z,96928.59
2019-05-20T11:53:03.923Z,96929.33
2019-05-20T11:55:33.856Z,96927.80
2019-05-20T11:58:15.160Z,96931.67
2019-05-20T12:00:35.614Z,96932.13
2019-05-20T12:03:05.622Z,96933.44
2019-05-20T12:05:35.530Z,96936.33
2019-05-20T12:08:05.712Z,96935.13
2019-05-20T12:10:35.611Z,96943.75
2019-05-20T12:13:05.587Z,96943.13
2019-05-20T12:15:35.461Z,96945.13
2019-05-20T12:29:34.374Z,96938.58
2019-05-20T12:32:04.396Z,96941.02
2019-05-20T12:34:34.428Z,96940.96
2019-05-20T12:37:04.413Z,96941.97
2019-05-20T12:39:34.444Z,96936.86
2019-05-20T12:53:28.564Z,96928.58
2019-05-20T12:55:58.529Z,96931.19
2019-05-20T12:58:28.526Z,96934.70
2019-05-20T13:00:58.654Z,96936.78
2019-05-20T13:07:39.510Z,96946.07
2019-05-20T13:10:26.686Z,96947.58
2019-05-20T13:12:41.700Z,96937.88
2019-05-20T13:15:13.679Z,96936.81
2019-05-20T13:17:45.183Z,96941.92
2019-05-20T13:20:15.991Z,96939.53
2019-05-20T13:41:45.982Z,96936.28
2019-05-20T13:51:38.411Z,96932.41
2019-05-20T14:20:40.364Z,96910.70
2019-05-20T14:23:10.339Z,96908.13
2019-05-20T14:32:02.163Z,96917.39
2019-05-20T14:34:32.726Z,96912.20
2019-05-20T14:54:12.422Z,96917.40
2019-05-20T14:56:42.433Z,96916.94
2019-05-20T14:59:12.341Z,96922.85
2019-05-20T15:07:50.244Z,96927.52
2019-05-20T15:10:20.812Z,96923.63
2019-05-20T15:12:50.847Z,96929.50
2019-05-20T15:15:20.956Z,96927.05
2019-05-20T15:17:50.984Z,96928.36
2019-05-20T15:20:21.110Z,96932.81
2019-05-20T15:22:51.122Z,96932.02
2019-05-20T15:25:21.342Z,96938.55
2019-05-20T15:31:42.042Z,96937.52
2019-05-20T15:34:12.613Z,96936.70
2019-05-20T15:36:42.697Z,96936.57
2019-05-20T15:39:12.865Z,96941.34
2019-05-20T15:41:42.905Z,96946.38
2019-05-20T15:44:12.812Z,96948.09
2019-05-20T15:46:43.396Z,96943.66
2019-05-20T15:49:13.347Z,96948.79
2019-05-20T15:51:43.236Z,96948.53
2019-05-20T15:54:13.214Z,96947.77
2019-05-20T15:56:43.252Z,96944.45
2019-05-20T15:59:13.816Z,96948.53
2019-05-20T16:04:54.971Z,96947.27
2019-05-20T16:07:25.474Z,96955.06
2019-05-20T16:09:55.372Z,96952.47
2019-05-20T16:12:25.312Z,96954.18
2019-05-20T16:14:55.331Z,96955.13
2019-05-20T16:21:17.064Z,96952.78
2019-05-20T16:31:06.255Z,96946.49
2019-05-20T16:33:36.280Z,96949.63
2019-05-20T16:36:06.415Z,96950.91
2019-05-20T16:38:36.578Z,96949.82
2019-05-20T16:41:06.512Z,96954.32
2019-05-20T16:43:36.506Z,96955.86
2019-05-20T16:46:06.420Z,96951.13
2019-05-20T16:48:37.171Z,96955.13
2019-05-20T16:51:07.151Z,96957.25
2019-05-20T16:53:37.090Z,96954.91
2019-05-20T16:56:07.052Z,96958.17
2019-05-20T16:58:37.071Z,96952.56
2019-05-20T17:01:07.012Z,96957.66
2019-05-20T17:03:37.108Z,96958.91
2019-05-20T17:06:07.086Z,96958.84
2019-05-20T17:08:37.144Z,96951.13
2019-05-20T17:11:07.183Z,96959.35
2019-05-20T17:13:37.200Z,96958.58
2019-05-20T17:16:07.906Z,96958.55
2019-05-20T17:18:37.941Z,96966.68
2019-05-20T17:25:00.336Z,96970.89
2019-05-20T17:27:30.351Z,96968.15
2019-05-20T17:30:00.925Z,96977.51
2019-05-20T17:44:00.262Z,96965.71
2019-05-20T17:46:30.451Z,96955.66
2019-05-20T17:49:00.490Z,96958.66
2019-05-20T17:51:30.477Z,96961.98
2019-05-20T17:57:51.521Z,96966.07
2019-05-20T18:00:23.304Z,96974.98
2019-05-20T18:02:53.440Z,96964.23
2019-05-20T18:05:23.528Z,96974.94
2019-05-20T18:07:53.666Z,96969.74
2019-05-20T18:21:53.130Z,96993.30
2019-05-20T18:24:23.097Z,96992.95
2019-05-20T18:26:56.094Z,96999.52
2019-05-20T18:33:17.299Z,97004.50
2019-05-20T18:35:47.266Z,97008.63
2019-05-20T18:38:17.771Z,97013.64
2019-05-20T18:40:47.850Z,97007.72
2019-05-20T18:43:17.748Z,97009.50
2019-05-20T18:45:47.737Z,97009.16
2019-05-20T18:52:02.739Z,97005.06
2019-05-20T18:54:32.964Z,97001.73
2019-05-20T18:57:03.063Z,97005.06
2019-05-20T18:59:33.160Z,97005.06
2019-05-20T19:02:05.686Z,96997.70
2019-05-20T19:04:35.597Z,97000.21
2019-05-20T19:07:05.647Z,96996.67
2019-05-20T19:09:35.689Z,96993.61
2019-05-20T19:15:57.353Z,96993.14
2019-05-20T19:18:27.398Z,96997.48
2019-05-20T19:20:57.632Z,97005.62
2019-05-20T19:23:27.538Z,97008.17
2019-05-20T19:25:58.390Z,97011.05
2019-05-20T19:28:28.314Z,97013.59
2019-05-20T19:30:58.307Z,97019.73
2019-05-20T19:33:28.212Z,97024.33
2019-05-20T19:35:58.279Z,97023.05
2019-05-20T19:38:31.859Z,97033.28
2019-05-20T19:40:59.930Z,97035.64
2019-05-20T19:43:30.108Z,97033.55
2019-05-20T19:46:00.250Z,97034.56
2019-05-20T19:48:30.143Z,97033.83
2019-05-20T19:51:00.160Z,97036.91
2019-05-20T19:53:30.645Z,97044.37
2019-05-20T19:56:00.614Z,97035.93
2019-05-20T19:58:30.851Z,97040.27
2019-05-20T20:01:00.984Z,97039.77
2019-05-20T20:03:30.961Z,97044.23
2019-05-20T20:06:01.191Z,97046.69
2019-05-20T20:08:31.151Z,97043.30
2019-05-20T20:11:01.065Z,97045.60
2019-05-20T20:13:33.947Z,97045.05
2019-05-20T20:16:03.326Z,97044.01
2019-05-20T20:18:33.537Z,97051.63
2019-05-20T20:21:03.647Z,97055.45
2019-05-20T20:23:33.771Z,97056.73
2019-05-20T20:26:03.840Z,97051.58
2019-05-20T20:28:33.824Z,97063.80
2019-05-20T20:31:03.882Z,97061.23
2019-05-20T20:33:33.897Z,97067.47
2019-05-20T20:36:04.246Z,97060.72
2019-05-20T20:38:34.212Z,97067.29
2019-05-20T20:41:04.131Z,97079.50
2019-05-20T20:43:34.113Z,97080.48
2019-05-20T21:24:58.707Z,97104.61
2019-05-20T21:50:05.340Z,97115.35
2019-05-20T22:07:14.256Z,97103.86
2019-05-20T22:09:44.342Z,97111.52
2019-05-20T22:12:14.506Z,97108.47
2019-05-20T22:14:44.454Z,97116.39
2019-05-20T22:21:05.759Z,97117.52
2019-05-20T22:23:49.889Z,97113.13
2019-05-20T22:52:47.420Z,97120.28
2019-05-20T22:55:17.426Z,97116.72
2019-05-20T22:57:47.413Z,97124.88
2019-05-20T23:00:18.661Z,97130.28
2019-05-20T23:06:39.822Z,97121.62
2019-05-20T23:39:15.531Z,97120.20
